Time;durP1;ratioP1;P1;durP2;ratioP2;P2;SDS_P1;SDS_P2;PMS_P1;PMS_P2;Temp;Humidity;BMP_temperature;BMP_pressure;BME280_temperature;BME280_humidity;BME280_pressure;Samples;Min_cycle;Max_cycle;Signal;HPM_P1;HPM_P2
2022/01/03 00:02:02;;;;;;;4.90;1.17;;;28.10;99.90;;;;;;5063474;28;20226;-84
2022/01/03 00:04:34;;;;;;;4.72;1.13;;;28.20;99.90;;;;;;5057734;28;20643;-84
2022/01/03 00:07:06;;;;;;;5.35;1.50;;;28.20;99.90;;;;;;5059390;28;20260;-84
2022/01/03 00:09:38;;;;;;;5.85;1.13;;;28.30;99.90;;;;;;5062340;28;20222;-84
2022/01/03 00:12:09;;;;;;;4.25;1.10;;;28.30;99.90;;;;;;5058274;28;20192;-85
2022/01/03 00:14:44;;;;;;;6.43;1.38;;;28.30;99.90;;;;;;5062274;28;20195;-86
2022/01/03 00:17:15;;;;;;;6.78;1.33;;;28.40;99.90;;;;;;5060245;28;20274;-84
2022/01/03 00:19:46;;;;;;;6.05;1.30;;;28.30;99.90;;;;;;5054757;28;21249;-80
2022/01/03 00:22:22;;;;;;;8.05;1.65;;;28.40;99.90;;;;;;5057335;28;20203;-80
2022/01/03 00:25:04;;;;;;;5.80;1.42;;;28.30;99.90;;;;;;5054582;28;20207;-80
2022/01/03 00:27:42;;;;;;;5.97;1.55;;;28.20;99.90;;;;;;5057667;28;20198;-80
2022/01/03 00:30:19;;;;;;;7.78;1.52;;;28.00;99.90;;;;;;5057077;28;20242;-80
2022/01/03 00:32:52;;;;;;;5.25;1.40;;;27.90;99.90;;;;;;5056105;28;20195;-80
2022/01/03 00:35:23;;;;;;;5.30;1.35;;;27.90;99.90;;;;;;5056444;28;20223;-80
2022/01/03 00:37:54;;;;;;;5.22;1.35;;;27.90;99.90;;;;;;5056045;28;20210;-80
2022/01/03 00:40:27;;;;;;;8.32;1.73;;;27.90;99.90;;;;;;5055706;28;20200;-80
2022/01/03 00:42:57;;;;;;;7.03;1.30;;;27.80;99.90;;;;;;5054584;28;20223;-80
2022/01/03 00:45:30;;;;;;;6.15;1.35;;;27.80;99.90;;;;;;5056508;28;20671;-80
2022/01/03 00:48:01;;;;;;;3.15;1.00;;;27.80;99.90;;;;;;5054536;28;20204;-80
2022/01/03 00:50:36;;;;;;;5.15;1.23;;;27.90;99.90;;;;;;5058974;28;20203;-80
2022/01/03 00:53:07;;;;;;;4.25;1.25;;;27.90;99.90;;;;;;5054868;28;20199;-80
2022/01/03 00:55:40;;;;;;;6.70;1.40;;;28.00;99.90;;;;;;5055487;28;20224;-80
2022/01/03 00:58:16;;;;;;;7.97;1.35;;;28.10;99.90;;;;;;5055173;28;20200;-80
2022/01/03 01:00:53;;;;;;;6.55;1.52;;;28.10;99.90;;;;;;5055656;28;20211;-79
2022/01/03 01:03:29;;;;;;;3.70;1.08;;;28.20;99.90;;;;;;5054553;28;20322;-80
2022/01/03 01:06:04;;;;;;;2.58;0.90;;;28.10;99.90;;;;;;5058929;28;20760;-80
2022/01/03 01:08:36;;;;;;;8.65;1.58;;;28.20;99.90;;;;;;5058036;28;20223;-80
2022/01/03 01:11:09;;;;;;;6.00;1.40;;;28.30;99.90;;;;;;5062601;28;20233;-80
2022/01/03 01:13:43;;;;;;;4.88;1.35;;;28.30;99.90;;;;;;5058026;28;20613;-80
2022/01/03 01:16:16;;;;;;;7.95;1.35;;;28.40;99.90;;;;;;5057489;28;20582;-80
2022/01/03 01:18:48;;;;;;;3.55;1.23;;;28.50;99.90;;;;;;5055859;28;20206;-80
2022/01/03 01:21:22;;;;;;;5.57;1.13;;;28.60;99.90;;;;;;5056408;28;20210;-81
2022/01/03 01:23:53;;;;;;;4.65;1.10;;;28.70;99.90;;;;;;5058294;28;20202;-80
2022/01/03 01:29:12;;;;;;;3.80;1.00;;;28.60;99.90;;;;;;5057723;28;20223;-80
2022/01/03 01:31:57;;;;;;;4.68;1.25;;;28.60;99.90;;;;;;5057856;28;20204;-80
2022/01/03 01:34:31;;;;;;;5.53;1.30;;;28.80;99.90;;;;;;5061057;28;20220;-80
2022/01/03 01:37:02;;;;;;;5.47;1.40;;;28.80;99.90;;;;;;5057679;28;20234;-80
2022/01/03 01:39:34;;;;;;;3.38;1.20;;;28.80;99.90;;;;;;5057915;28;20250;-81
2022/01/03 01:42:06;;;;;;;4.60;1.10;;;28.70;99.90;;;;;;5057270;28;20753;-80
2022/01/03 01:44:38;;;;;;;6.93;1.35;;;28.70;99.90;;;;;;5057097;28;20202;-80
2022/01/03 01:47:11;;;;;;;2.85;1.00;;;28.60;99.90;;;;;;5056093;28;20200;-80
2022/01/03 01:49:46;;;;;;;5.03;1.10;;;28.60;99.90;;;;;;5056796;28;20207;-80
2022/01/03 01:52:21;;;;;;;3.42;1.10;;;28.70;99.90;;;;;;5058711;28;20576;-79
2022/01/03 01:54:58;;;;;;;6.03;1.23;;;28.70;99.90;;;;;;5059989;28;20203;-80
2022/01/03 01:57:46;;;;;;;3.33;0.88;;;28.70;99.90;;;;;;5058612;28;20250;-84
2022/01/03 02:00:18;;;;;;;3.33;1.02;;;28.80;99.90;;;;;;5064121;28;20714;-84
2022/01/03 02:03:07;;;;;;;6.07;1.17;;;28.80;99.90;;;;;;5064105;28;20192;-84
2022/01/03 02:05:42;;;;;;;2.72;0.95;;;28.80;99.90;;;;;;5062348;28;20285;-84
2022/01/03 02:08:17;;;;;;;3.63;0.82;;;28.80;99.90;;;;;;5064310;28;20306;-82
2022/01/03 02:10:52;;;;;;;3.35;0.90;;;28.70;99.90;;;;;;5061464;28;20233;-84
2022/01/03 02:13:23;;;;;;;2.13;0.70;;;28.80;99.90;;;;;;5059583;28;20195;-85
2022/01/03 02:16:03;;;;;;;4.28;0.90;;;28.80;99.90;;;;;;5057827;28;20212;-84
2022/01/03 02:18:36;;;;;;;3.90;0.95;;;28.80;99.90;;;;;;5056420;28;20195;-85
2022/01/03 02:21:09;;;;;;;2.97;0.90;;;28.90;99.90;;;;;;5058937;28;20248;-85
2022/01/03 02:23:40;;;;;;;2.28;0.82;;;28.90;99.90;;;;;;5056523;28;20203;-84
2022/01/03 02:26:10;;;;;;;4.57;0.90;;;29.10;99.90;;;;;;5055654;28;20196;-85
2022/01/03 02:28:41;;;;;;;3.50;0.90;;;29.10;99.90;;;;;;5054254;28;20265;-84
2022/01/03 02:31:12;;;;;;;2.50;0.80;;;29.20;99.90;;;;;;5056336;28;20200;-84
2022/01/03 02:33:43;;;;;;;3.83;1.10;;;29.20;99.90;;;;;;5057238;28;20200;-84
2022/01/03 02:36:15;;;;;;;5.43;1.15;;;29.30;99.90;;;;;;5057590;28;20262;-81
2022/01/03 02:38:46;;;;;;;3.25;1.00;;;29.20;99.90;;;;;;5058998;28;20205;-84
2022/01/03 02:41:17;;;;;;;4.20;1.00;;;29.20;99.90;;;;;;5058257;28;20196;-84
2022/01/03 02:43:47;;;;;;;5.55;1.00;;;29.20;99.90;;;;;;5055198;28;20222;-85
2022/01/03 02:46:18;;;;;;;3.90;1.10;;;29.20;99.90;;;;;;5056035;28;20212;-81
2022/01/03 02:48:49;;;;;;;2.78;1.10;;;29.20;99.90;;;;;;5054846;28;20289;-80
2022/01/03 02:51:24;;;;;;;4.15;0.98;;;29.30;99.90;;;;;;5056501;28;20216;-82
2022/01/03 02:53:55;;;;;;;6.10;1.30;;;29.40;99.90;;;;;;5057095;28;20249;-81
2022/01/03 02:56:25;;;;;;;5.68;1.20;;;29.40;99.90;;;;;;5056532;28;20224;-80
2022/01/03 02:58:56;;;;;;;2.92;0.95;;;29.40;99.90;;;;;;5053083;28;20200;-83
2022/01/03 03:01:27;;;;;;;4.72;0.85;;;29.40;99.90;;;;;;5058245;28;20196;-84
2022/01/03 03:04:02;;;;;;;4.10;1.15;;;29.40;99.90;;;;;;5051778;28;20204;-81
2022/01/03 03:06:38;;;;;;;3.53;1.20;;;29.40;99.90;;;;;;5035759;28;20246;-80
2022/01/03 03:09:08;;;;;;;8.93;1.38;;;29.50;99.90;;;;;;5034974;28;20223;-79
2022/01/03 03:11:40;;;;;;;2.58;0.90;;;29.50;99.90;;;;;;5034346;28;20580;-79
2022/01/03 03:14:10;;;;;;;6.50;1.10;;;29.40;99.90;;;;;;5033811;28;22149;-79
2022/01/03 03:16:42;;;;;;;4.30;1.30;;;29.40;99.90;;;;;;5033978;28;20227;-80
2022/01/03 03:19:14;;;;;;;3.33;1.00;;;29.60;99.90;;;;;;5037816;28;20297;-83
2022/01/03 03:21:48;;;;;;;5.47;1.20;;;29.60;99.90;;;;;;5036452;28;20201;-80
2022/01/03 03:24:19;;;;;;;4.15;1.10;;;29.70;99.90;;;;;;5033819;28;20282;-80
2022/01/03 03:26:50;;;;;;;5.95;1.33;;;29.80;99.90;;;;;;5034146;28;20372;-80
2022/01/03 03:29:20;;;;;;;4.10;1.00;;;29.80;99.90;;;;;;5034194;28;21268;-80
2022/01/03 03:31:51;;;;;;;2.38;0.73;;;29.70;99.90;;;;;;5033483;28;20648;-79
2022/01/03 03:34:25;;;;;;;3.22;1.00;;;29.80;99.90;;;;;;5034028;28;20580;-80
2022/01/03 03:36:58;;;;;;;5.25;1.60;;;29.80;99.90;;;;;;5033640;28;20216;-85
2022/01/03 03:39:30;;;;;;;5.05;1.40;;;29.80;99.90;;;;;;5036013;28;20215;-84
2022/01/03 03:42:00;;;;;;;5.63;1.30;;;29.90;99.90;;;;;;5035846;28;20204;-85
2022/01/03 03:44:31;;;;;;;6.65;1.15;;;30.00;99.90;;;;;;5035171;28;21015;-85
2022/01/03 03:47:02;;;;;;;4.38;1.10;;;30.00;99.90;;;;;;5036395;28;20255;-82
2022/01/03 03:49:32;;;;;;;3.92;1.00;;;30.00;99.90;;;;;;5032892;28;20224;-80
2022/01/03 03:52:05;;;;;;;4.38;1.08;;;30.00;99.90;;;;;;5035565;28;20197;-80
2022/01/03 03:54:37;;;;;;;5.10;1.20;;;29.90;99.90;;;;;;5035508;28;20238;-80
2022/01/03 03:57:09;;;;;;;4.55;1.25;;;29.80;99.90;;;;;;5034417;28;21334;-80
2022/01/03 03:59:40;;;;;;;5.93;1.40;;;29.60;99.90;;;;;;5033021;28;20221;-80
2022/01/03 04:02:10;;;;;;;6.43;1.25;;;29.50;99.90;;;;;;5033264;28;20266;-80
2022/01/03 04:04:41;;;;;;;6.07;1.58;;;29.60;99.90;;;;;;5039509;28;21058;-83
2022/01/03 04:07:14;;;;;;;3.55;1.17;;;29.50;99.90;;;;;;5055312;28;20200;-79
2022/01/03 04:09:44;;;;;;;5.78;1.45;;;29.50;99.90;;;;;;5055052;28;20613;-80
2022/01/03 04:12:15;;;;;;;5.45;1.23;;;29.50;99.90;;;;;;5053673;28;20231;-80
2022/01/03 04:14:46;;;;;;;5.78;1.27;;;29.50;99.90;;;;;;5052693;28;20249;-80
2022/01/03 04:17:16;;;;;;;3.45;1.10;;;29.50;99.90;;;;;;5057436;28;20232;-81
2022/01/03 04:19:49;;;;;;;4.28;0.98;;;29.40;99.90;;;;;;5056736;28;20203;-83
2022/01/03 04:22:22;;;;;;;4.47;1.13;;;29.40;99.90;;;;;;5058505;28;20337;-83
2022/01/03 04:24:53;;;;;;;4.78;1.30;;;29.40;99.90;;;;;;5057758;28;20642;-84
2022/01/03 04:27:23;;;;;;;5.35;1.27;;;29.50;99.90;;;;;;5060319;28;20196;-83
2022/01/03 04:29:54;;;;;;;5.15;1.30;;;29.60;99.90;;;;;;5059897;28;20257;-83
2022/01/03 04:32:25;;;;;;;3.75;1.13;;;29.60;99.90;;;;;;5063201;28;20200;-84
2022/01/03 04:34:56;;;;;;;2.90;1.02;;;29.50;99.90;;;;;;5060659;28;20191;-84
2022/01/03 04:37:28;;;;;;;5.55;1.42;;;29.50;99.90;;;;;;5061644;28;20250;-84
2022/01/03 04:39:59;;;;;;;4.68;1.08;;;29.60;99.90;;;;;;5066558;28;20583;-84
2022/01/03 04:42:30;;;;;;;4.95;1.27;;;29.70;99.90;;;;;;5058955;28;20219;-82
2022/01/03 04:45:02;;;;;;;5.00;0.93;;;29.80;99.90;;;;;;5059446;28;21908;-81
2022/01/03 04:47:33;;;;;;;5.30;1.30;;;29.90;99.90;;;;;;5061149;28;20678;-85
2022/01/03 04:50:03;;;;;;;5.32;1.30;;;29.90;99.90;;;;;;5058278;28;20200;-81
2022/01/03 04:52:36;;;;;;;4.95;1.23;;;30.00;99.90;;;;;;5060529;28;20215;-82
2022/01/03 04:55:06;;;;;;;6.63;1.70;;;30.20;99.90;;;;;;5063133;28;20297;-79
2022/01/03 04:57:37;;;;;;;3.20;1.10;;;30.10;99.90;;;;;;5056656;28;20281;-80
2022/01/03 05:00:09;;;;;;;4.75;1.10;;;29.90;99.90;;;;;;5060718;28;20211;-80
2022/01/03 05:02:40;;;;;;;6.07;1.52;;;29.90;99.90;;;;;;5060647;28;20204;-81
2022/01/03 05:05:14;;;;;;;5.15;1.25;;;29.70;99.90;;;;;;5063322;28;20776;-79
2022/01/03 05:07:47;;;;;;;4.50;1.10;;;29.70;99.90;;;;;;5075089;28;20206;-81
2022/01/03 05:10:17;;;;;;;7.43;1.27;;;30.00;99.90;;;;;;5074237;28;20279;-80
2022/01/03 05:12:48;;;;;;;8.27;1.40;;;30.00;99.90;;;;;;5074585;28;20203;-81
2022/01/03 05:15:19;;;;;;;7.60;1.48;;;30.00;99.90;;;;;;5059076;28;20199;-80
2022/01/03 05:17:49;;;;;;;4.43;1.30;;;30.30;99.90;;;;;;5062231;28;20227;-80
2022/01/03 05:20:20;;;;;;;6.88;1.40;;;30.50;99.90;;;;;;5066677;28;20269;-81
2022/01/03 05:22:52;;;;;;;4.65;1.25;;;30.20;99.90;;;;;;5073462;28;20256;-81
2022/01/03 05:25:23;;;;;;;6.35;1.50;;;30.20;99.90;;;;;;5072177;28;20261;-85
2022/01/03 05:27:54;;;;;;;5.60;1.50;;;30.30;99.90;;;;;;5088337;28;20241;-85
2022/01/03 05:30:24;;;;;;;8.65;1.50;;;30.60;99.90;;;;;;5093155;28;20286;-85
2022/01/03 05:32:55;;;;;;;7.43;1.27;;;30.80;99.90;;;;;;5085404;28;20204;-85
2022/01/03 05:35:26;;;;;;;5.30;1.40;;;30.90;99.90;;;;;;5073396;28;20609;-85
2022/01/03 05:37:59;;;;;;;6.10;1.42;;;30.90;99.90;;;;;;5060397;28;20273;-81
2022/01/03 05:40:30;;;;;;;5.25;1.42;;;30.90;99.90;;;;;;5071524;28;20196;-80
2022/01/03 05:43:01;;;;;;;7.00;1.30;;;30.80;99.90;;;;;;5071843;28;20222;-85
2022/01/03 05:45:32;;;;;;;5.88;1.25;;;30.90;99.90;;;;;;5072816;28;20211;-80
2022/01/03 05:48:02;;;;;;;5.68;1.48;;;30.70;99.90;;;;;;5071922;28;20196;-80
2022/01/03 05:50:33;;;;;;;3.70;1.08;;;30.80;99.90;;;;;;5051773;28;20192;-85
2022/01/03 05:53:05;;;;;;;5.20;1.52;;;31.10;99.90;;;;;;5061740;28;20188;-81
2022/01/03 05:55:36;;;;;;;4.60;1.20;;;31.20;99.90;;;;;;5063312;28;20207;-80
2022/01/03 05:58:07;;;;;;;7.57;1.30;;;31.50;99.90;;;;;;5081815;28;20649;-81
2022/01/03 06:00:37;;;;;;;5.15;1.17;;;31.90;99.90;;;;;;5054963;28;20541;-79
2022/01/03 06:03:08;;;;;;;4.53;1.20;;;32.20;99.90;;;;;;5071819;28;20203;-80
2022/01/03 06:06:03;;;;;;;5.03;1.48;;;32.50;99.90;;;;;;5071434;28;20228;-81
2022/01/03 06:08:35;;;;;;;4.68;1.20;;;32.70;99.90;;;;;;5068265;28;20283;-81
2022/01/03 06:11:06;;;;;;;4.55;1.20;;;32.90;99.90;;;;;;5071204;28;20196;-81
2022/01/03 06:13:37;;;;;;;4.20;1.00;;;33.00;99.90;;;;;;5059232;28;20530;-86
2022/01/03 06:16:09;;;;;;;4.50;1.17;;;33.20;99.90;;;;;;5065186;28;20196;-81
2022/01/03 06:18:40;;;;;;;3.97;1.10;;;33.30;99.90;;;;;;5070774;28;20219;-80
2022/01/03 06:21:12;;;;;;;4.35;1.10;;;33.20;99.90;;;;;;5072103;28;20192;-81
2022/01/03 06:23:46;;;;;;;6.32;1.40;;;33.30;99.90;;;;;;5070814;28;20282;-80
2022/01/03 06:26:16;;;;;;;3.33;1.33;;;32.90;99.90;;;;;;5071151;28;20293;-85
2022/01/03 06:28:47;;;;;;;5.93;1.50;;;32.30;99.90;;;;;;5071808;28;20602;-81
2022/01/03 06:31:18;;;;;;;4.38;1.10;;;32.60;99.90;;;;;;5063538;28;20309;-81
2022/01/03 06:33:48;;;;;;;5.55;1.38;;;32.80;99.90;;;;;;5071337;28;20667;-81
2022/01/03 06:36:19;;;;;;;4.63;1.38;;;33.20;99.90;;;;;;5071832;28;20200;-81
2022/01/03 06:38:52;;;;;;;5.93;1.40;;;33.20;99.90;;;;;;5071262;28;20691;-81
2022/01/03 06:41:22;;;;;;;4.45;1.20;;;33.30;99.90;;;;;;5060627;28;20660;-80
2022/01/03 06:43:53;;;;;;;3.88;1.20;;;33.50;99.90;;;;;;5066842;28;20196;-85
2022/01/03 06:46:24;;;;;;;4.80;1.30;;;33.90;99.90;;;;;;5073200;28;20258;-81
2022/01/03 06:48:55;;;;;;;4.93;1.13;;;34.30;99.90;;;;;;5068765;28;20199;-81
2022/01/03 06:51:25;;;;;;;2.75;1.00;;;34.60;99.90;;;;;;5070936;28;20192;-80
2022/01/03 06:53:58;;;;;;;3.75;1.20;;;35.00;99.40;;;;;;5071052;28;20235;-81
2022/01/03 06:56:29;;;;;;;4.28;1.08;;;35.40;99.50;;;;;;5070788;28;20250;-81
2022/01/03 06:58:59;;;;;;;5.68;1.30;;;35.50;98.90;;;;;;5068678;28;20235;-81
2022/01/03 07:01:30;;;;;;;3.42;1.00;;;35.80;97.10;;;;;;5069982;28;20193;-81
2022/01/03 07:04:01;;;;;;;3.47;1.00;;;35.80;96.60;;;;;;5070791;28;20692;-81
2022/01/03 07:06:32;;;;;;;2.67;1.00;;;36.00;94.50;;;;;;5070888;28;20188;-81
2022/01/03 07:09:07;;;;;;;4.63;1.20;;;35.50;93.90;;;;;;5068214;28;20836;-80
2022/01/03 07:11:38;;;;;;;3.03;1.13;;;35.50;95.00;;;;;;5051558;28;20563;-81
2022/01/03 07:19:38;;;;;;;3.38;1.00;;;36.00;92.90;;;;;;5068875;28;20672;-82
2022/01/03 07:22:11;;;;;;;3.53;1.17;;;36.00;93.30;;;;;;5052411;28;20224;-82
2022/01/03 07:24:44;;;;;;;3.08;1.10;;;36.30;94.00;;;;;;5070877;28;20203;-81
2022/01/03 07:27:15;;;;;;;4.97;1.40;;;36.70;93.50;;;;;;5084789;28;20196;-80
2022/01/03 07:29:47;;;;;;;5.95;1.40;;;36.50;94.20;;;;;;5097370;28;20213;-81
2022/01/03 07:32:17;;;;;;;4.43;1.20;;;36.40;93.20;;;;;;5075921;28;20199;-82
2022/01/03 07:34:48;;;;;;;5.72;1.50;;;36.30;93.40;;;;;;5071089;28;20206;-82
2022/01/03 07:37:19;;;;;;;5.72;1.58;;;36.30;93.80;;;;;;5070898;28;20233;-81
2022/01/03 07:39:52;;;;;;;3.53;1.38;;;36.40;93.50;;;;;;5070610;28;20195;-81
2022/01/03 07:42:24;;;;;;;4.93;1.40;;;36.20;93.00;;;;;;5070240;28;20598;-81
2022/01/03 07:44:55;;;;;;;4.38;1.23;;;35.40;93.90;;;;;;5066784;28;20192;-85
2022/01/03 07:47:26;;;;;;;4.47;1.48;;;34.90;93.70;;;;;;5051594;28;20196;-80
2022/01/03 07:49:56;;;;;;;5.18;1.48;;;34.70;94.40;;;;;;5061564;28;20200;-81
2022/01/03 07:52:27;;;;;;;6.38;1.63;;;34.70;95.50;;;;;;5068008;28;20264;-81
2022/01/03 07:55:02;;;;;;;3.90;1.42;;;34.70;95.70;;;;;;5052787;28;20246;-81
2022/01/03 07:57:33;;;;;;;6.43;1.35;;;34.90;95.90;;;;;;5068791;28;20210;-82
2022/01/03 08:00:05;;;;;;;5.60;1.30;;;34.50;95.50;;;;;;5069069;28;20199;-82
2022/01/03 08:02:37;;;;;;;4.05;1.60;;;34.40;96.10;;;;;;5060445;28;20188;-81
2022/01/03 08:05:09;;;;;;;3.97;1.58;;;34.20;96.40;;;;;;5069022;28;20223;-81
2022/01/03 08:07:40;;;;;;;5.32;1.58;;;33.70;97.10;;;;;;5061576;28;20192;-81
2022/01/03 08:10:13;;;;;;;7.80;1.95;;;33.20;99.00;;;;;;5059490;28;20200;-82
2022/01/03 08:12:44;;;;;;;5.38;1.55;;;32.50;99.90;;;;;;5068852;28;20200;-81
2022/01/03 08:15:15;;;;;;;9.82;1.80;;;31.80;99.90;;;;;;5070167;28;20200;-81
2022/01/03 08:17:46;;;;;;;5.20;1.70;;;31.20;99.90;;;;;;5069628;28;20217;-82
2022/01/03 08:20:17;;;;;;;4.45;1.52;;;30.70;99.90;;;;;;5063564;28;20678;-81
2022/01/03 08:22:48;;;;;;;5.15;1.60;;;30.40;99.90;;;;;;5068713;28;20208;-81
2022/01/03 08:25:20;;;;;;;3.85;1.60;;;30.10;99.90;;;;;;5056412;28;20676;-81
2022/01/03 08:27:51;;;;;;;6.80;1.60;;;29.90;99.90;;;;;;5070909;28;20199;-80
2022/01/03 08:30:22;;;;;;;6.78;1.73;;;29.60;99.90;;;;;;5070847;28;20211;-80
2022/01/03 08:32:52;;;;;;;4.18;1.50;;;29.40;99.90;;;;;;5057705;28;20613;-80
2022/01/03 08:35:24;;;;;;;5.38;1.50;;;29.30;99.90;;;;;;5058368;28;20197;-80
2022/01/03 08:37:56;;;;;;;6.43;1.63;;;29.10;99.90;;;;;;5061382;28;20301;-80
2022/01/03 08:40:29;;;;;;;7.38;1.60;;;28.90;99.90;;;;;;5070333;28;20199;-81
2022/01/03 08:43:00;;;;;;;6.15;1.90;;;28.80;99.90;;;;;;5064702;28;20245;-80
2022/01/03 08:45:30;;;;;;;5.32;1.50;;;28.70;99.90;;;;;;5055356;28;20608;-80
2022/01/03 08:48:01;;;;;;;5.72;1.65;;;28.60;99.90;;;;;;5052688;28;20204;-81
2022/01/03 08:50:33;;;;;;;4.90;1.55;;;28.50;99.90;;;;;;5070457;28;20195;-81
2022/01/03 08:53:04;;;;;;;7.38;1.70;;;28.20;99.90;;;;;;5070422;28;20192;-81
2022/01/03 08:55:37;;;;;;;7.30;1.48;;;28.20;99.90;;;;;;5068619;28;20215;-81
2022/01/03 08:58:08;;;;;;;6.70;1.75;;;28.10;99.90;;;;;;5069875;28;20673;-81
2022/01/03 09:00:39;;;;;;;6.43;1.70;;;27.90;99.90;;;;;;5070009;28;20188;-85
2022/01/03 09:03:10;;;;;;;5.80;1.40;;;27.80;99.90;;;;;;5070769;28;20242;-86
2022/01/03 09:05:41;;;;;;;7.38;1.70;;;27.60;99.90;;;;;;5079531;28;20231;-87
2022/01/03 09:08:12;;;;;;;8.65;1.63;;;27.60;99.90;;;;;;5070758;28;20184;-86
2022/01/03 09:10:45;;;;;;;5.50;1.60;;;27.50;99.90;;;;;;5070735;28;20694;-86
2022/01/03 09:13:15;;;;;;;5.47;1.67;;;27.40;99.90;;;;;;5063701;28;20193;-81
2022/01/03 09:15:48;;;;;;;6.32;1.75;;;27.40;99.90;;;;;;5062065;28;20188;-81
2022/01/03 09:18:21;;;;;;;7.93;1.95;;;27.40;99.90;;;;;;5069786;28;20682;-81
2022/01/03 09:20:52;;;;;;;9.07;2.22;;;27.30;99.90;;;;;;5068714;28;20203;-82
2022/01/03 09:23:26;;;;;;;7.38;2.33;;;27.30;99.90;;;;;;5063686;28;20278;-81
2022/01/03 09:28:56;;;;;;;7.55;1.88;;;27.10;99.90;;;;;;5061418;28;20199;-81
2022/01/03 09:31:28;;;;;;;9.90;2.35;;;27.10;99.90;;;;;;5072981;28;20196;-82
2022/01/03 09:34:02;;;;;;;11.02;2.03;;;27.10;99.90;;;;;;5065929;28;20647;-81
2022/01/03 09:36:33;;;;;;;11.82;2.45;;;27.10;99.90;;;;;;5072701;28;20192;-81
2022/01/03 09:39:06;;;;;;;10.00;1.92;;;27.10;99.90;;;;;;5071505;28;20227;-81
2022/01/03 09:41:40;;;;;;;9.35;1.92;;;27.00;99.90;;;;;;5059527;28;20255;-81
2022/01/03 09:44:13;;;;;;;8.10;2.10;;;26.90;99.90;;;;;;5053199;28;20219;-81
2022/01/03 09:46:46;;;;;;;8.45;2.28;;;26.90;99.90;;;;;;5054250;28;20185;-85
2022/01/03 09:49:19;;;;;;;6.90;1.88;;;26.80;99.90;;;;;;5055032;28;20200;-83
2022/01/03 09:51:50;;;;;;;6.97;1.65;;;26.80;99.90;;;;;;5070928;28;20280;-84
2022/01/03 09:54:25;;;;;;;9.50;2.03;;;26.70;99.90;;;;;;5073342;28;20210;-79
2022/01/03 09:56:59;;;;;;;7.88;1.90;;;26.70;99.90;;;;;;5065498;28;20250;-80
2022/01/03 09:59:30;;;;;;;7.80;1.73;;;26.70;99.90;;;;;;5066936;28;20219;-80
2022/01/03 10:02:01;;;;;;;9.80;1.85;;;26.70;99.90;;;;;;5072801;28;20678;-81
2022/01/03 10:04:35;;;;;;;7.00;1.73;;;26.60;99.90;;;;;;5071303;28;20250;-81
2022/01/03 10:07:06;;;;;;;8.75;1.83;;;26.60;99.90;;;;;;5072610;28;20203;-80
2022/01/03 10:09:37;;;;;;;7.22;2.03;;;26.60;99.90;;;;;;5072315;28;20224;-80
2022/01/03 10:12:12;;;;;;;9.07;1.88;;;26.50;99.90;;;;;;5072634;28;20242;-80
2022/01/03 10:14:43;;;;;;;6.63;1.75;;;26.50;99.90;;;;;;5058964;28;20349;-80
2022/01/03 10:17:14;;;;;;;6.05;1.92;;;26.50;99.90;;;;;;5065181;28;20216;-80
2022/01/03 10:19:55;;;;;;;7.70;1.83;;;26.50;99.90;;;;;;5071035;28;20220;-80
2022/01/03 10:22:30;;;;;;;6.70;1.75;;;26.40;99.90;;;;;;5056400;28;20192;-80
2022/01/03 10:25:02;;;;;;;7.32;2.03;;;26.40;99.90;;;;;;5072342;28;20203;-80
2022/01/03 10:27:49;;;;;;;7.60;1.70;;;26.40;99.90;;;;;;5072840;28;20200;-86
2022/01/03 10:30:35;;;;;;;9.23;1.80;;;26.40;99.90;;;;;;5070109;28;20330;-80
2022/01/03 10:33:08;;;;;;;6.80;1.90;;;26.40;99.90;;;;;;5068846;28;20207;-81
2022/01/03 10:35:44;;;;;;;10.82;2.50;;;26.30;99.90;;;;;;5070102;28;20192;-80
2022/01/03 10:38:31;;;;;;;10.40;2.35;;;26.30;99.90;;;;;;5052160;28;20192;-80
2022/01/03 10:41:14;;;;;;;5.47;1.83;;;26.30;99.90;;;;;;5055424;28;20196;-85
2022/01/03 10:43:48;;;;;;;7.90;2.10;;;26.30;99.90;;;;;;5072166;28;20254;-81
2022/01/03 10:46:23;;;;;;;7.38;1.98;;;26.20;99.90;;;;;;5080725;28;20200;-80
2022/01/03 10:48:56;;;;;;;9.90;2.20;;;26.20;99.90;;;;;;5071936;28;20199;-81
2022/01/03 10:51:28;;;;;;;9.88;2.00;;;26.20;99.90;;;;;;5066084;28;21005;-81
2022/01/03 10:54:01;;;;;;;7.20;1.90;;;26.20;99.90;;;;;;5068294;28;20216;-81
2022/01/03 10:56:35;;;;;;;11.32;2.20;;;26.10;99.90;;;;;;5056197;28;20259;-84
2022/01/03 10:59:23;;;;;;;10.77;2.17;;;26.10;99.90;;;;;;5066683;28;20709;-81
2022/01/03 11:02:03;;;;;;;7.80;1.75;;;26.10;99.90;;;;;;5074395;28;20200;-81
2022/01/03 11:04:42;;;;;;;10.00;2.03;;;26.10;99.90;;;;;;5074257;28;20232;-81
2022/01/03 11:13:15;;;;;;;8.15;1.92;;;26.10;99.90;;;;;;5064247;28;20562;-80
2022/01/03 11:15:56;;;;;;;7.65;2.00;;;26.00;99.90;;;;;;5074916;28;20246;-81
2022/01/03 11:18:28;;;;;;;6.38;1.98;;;26.00;99.90;;;;;;5074314;28;20655;-81
2022/01/03 11:21:11;;;;;;;11.02;1.67;;;26.00;99.90;;;;;;5073612;28;20196;-82
2022/01/03 11:23:44;;;;;;;7.97;2.03;;;26.00;99.90;;;;;;5072900;28;20203;-82
2022/01/03 11:26:17;;;;;;;7.35;1.98;;;26.00;99.90;;;;;;5074752;28;20279;-82
2022/01/03 11:28:49;;;;;;;7.00;1.60;;;25.90;99.90;;;;;;5075100;28;20250;-82
2022/01/03 11:31:23;;;;;;;12.50;2.03;;;25.90;99.90;;;;;;5074965;28;20261;-81
2022/01/03 11:33:55;;;;;;;6.55;1.75;;;25.90;99.90;;;;;;5072807;28;20226;-82
2022/01/03 11:36:29;;;;;;;6.63;1.90;;;25.90;99.90;;;;;;5070255;28;20204;-82
2022/01/03 11:39:04;;;;;;;7.97;1.60;;;25.80;99.90;;;;;;5065248;28;20596;-81
2022/01/03 11:41:35;;;;;;;6.97;2.05;;;25.70;99.90;;;;;;5080981;28;20198;-86
2022/01/03 11:44:07;;;;;;;9.63;2.33;;;25.70;99.90;;;;;;5093927;28;20184;-86
2022/01/03 11:46:41;;;;;;;6.75;1.60;;;25.70;99.90;;;;;;5094413;28;20191;-80
2022/01/03 11:49:13;;;;;;;7.85;2.03;;;25.70;99.90;;;;;;5081072;28;20242;-81
2022/01/03 11:51:46;;;;;;;9.15;1.88;;;25.70;99.90;;;;;;5053923;28;20189;-81
2022/01/03 11:54:17;;;;;;;8.45;2.00;;;25.70;99.90;;;;;;5064972;28;20575;-81
2022/01/03 11:56:53;;;;;;;5.60;1.65;;;25.70;99.90;;;;;;5058018;28;20219;-81
2022/01/03 12:03:36;;;;;;;7.97;1.73;;;25.60;99.90;;;;;;5058404;28;20586;-81
2022/01/03 12:05:15;;;;;;;7.82;1.42;;;25.70;99.90;;;;;;5069296;28;20231;-81
2022/01/03 12:08:00;;;;;;;6.72;1.55;;;25.70;99.90;;;;;;5072455;28;20199;-82
2022/01/03 12:10:46;;;;;;;6.00;1.77;;;25.70;99.90;;;;;;5073272;28;20199;-81
2022/01/03 12:13:18;;;;;;;12.95;2.13;;;25.70;99.90;;;;;;5072081;28;20257;-81
2022/01/03 12:16:04;;;;;;;6.95;1.50;;;25.60;99.90;;;;;;5072271;28;20204;-81
2022/01/03 12:18:39;;;;;;;6.05;1.58;;;25.50;99.90;;;;;;5065065;28;20618;-82
2022/01/03 12:21:11;;;;;;;6.13;1.40;;;25.60;99.90;;;;;;5051916;28;20212;-81
2022/01/03 12:23:44;;;;;;;4.80;1.30;;;25.60;99.90;;;;;;5064382;28;20269;-81
2022/01/03 12:26:17;;;;;;;7.60;1.60;;;25.60;99.90;;;;;;5068546;28;20694;-81
2022/01/03 12:29:14;;;;;;;6.28;1.80;;;25.50;99.90;;;;;;5068650;28;20748;-82
2022/01/03 12:32:15;;;;;;;7.47;1.70;;;25.50;99.90;;;;;;5026849;28;20212;-82
2022/01/03 12:34:47;;;;;;;5.32;1.30;;;25.50;99.90;;;;;;5064747;28;20201;-82
2022/01/03 12:37:21;;;;;;;6.60;1.50;;;25.50;99.90;;;;;;5070297;28;20613;-82
2022/01/03 12:40:13;;;;;;;4.90;1.40;;;25.40;99.90;;;;;;5053922;28;20328;-81
2022/01/03 12:42:58;;;;;;;7.30;1.50;;;25.50;99.90;;;;;;5070433;28;20712;-81
2022/01/03 12:45:53;;;;;;;8.35;1.58;;;25.50;99.90;;;;;;5071933;28;20712;-81
2022/01/03 12:48:25;;;;;;;6.22;1.52;;;25.40;99.90;;;;;;5070123;28;20682;-81
2022/01/03 12:51:15;;;;;;;8.57;1.83;;;25.40;99.90;;;;;;5070588;28;20192;-82
2022/01/03 12:53:55;;;;;;;7.18;1.63;;;25.40;99.90;;;;;;5070538;28;20192;-81
2022/01/03 12:56:34;;;;;;;6.57;1.70;;;25.40;99.90;;;;;;5069340;28;20303;-81
2022/01/03 12:59:16;;;;;;;6.68;1.45;;;25.30;99.90;;;;;;5071455;28;20609;-88
2022/01/03 13:01:47;;;;;;;8.02;1.80;;;25.30;99.90;;;;;;5074451;28;20220;-87
2022/01/03 13:04:28;;;;;;;8.82;1.70;;;25.30;99.90;;;;;;5074872;28;20207;-86
2022/01/03 13:07:07;;;;;;;5.53;1.60;;;25.30;99.90;;;;;;5074602;28;20195;-86
2022/01/03 13:09:42;;;;;;;3.67;1.30;;;25.20;99.90;;;;;;5074821;28;20180;-86
2022/01/03 13:12:12;;;;;;;4.68;1.23;;;25.30;99.90;;;;;;5094274;28;20260;-86
2022/01/03 13:14:44;;;;;;;7.63;1.33;;;25.20;99.90;;;;;;5086491;28;20226;-87
2022/01/03 13:17:16;;;;;;;9.82;1.77;;;25.30;99.90;;;;;;5073895;28;20284;-87
2022/01/03 13:19:47;;;;;;;5.47;1.60;;;25.20;99.90;;;;;;5074166;28;20227;-87
2022/01/03 13:22:23;;;;;;;8.45;1.75;;;25.20;99.90;;;;;;5081331;28;20263;-86
2022/01/03 13:25:02;;;;;;;5.70;1.40;;;25.20;99.90;;;;;;5094310;28;20213;-86
2022/01/03 13:27:32;;;;;;;7.13;1.90;;;25.10;99.90;;;;;;5088300;28;20191;-86
2022/01/03 13:30:06;;;;;;;11.32;1.88;;;25.10;99.90;;;;;;5054618;28;20658;-87
2022/01/03 13:32:37;;;;;;;6.53;1.73;;;25.10;99.90;;;;;;5073324;28;20245;-86
2022/01/03 13:35:08;;;;;;;8.48;1.90;;;25.10;99.90;;;;;;5058948;28;20273;-87
2022/01/03 13:37:41;;;;;;;7.78;1.50;;;25.10;99.90;;;;;;5053805;28;20592;-86